Main page
METAR-TAF:

METAR-TAF

Airports :

Murray-Calloway County Airport

Murray, Kentucky, United States

latitude: 36-39-52N, longitude: 088-22-22W, elevation: 577 ft

Current weather observation

The report was made 23 minutes ago, at 11:55 UTC
Calm wind
Temperature 75°F
Humidity 100%
Pressure 29.95 in. Hg
Visibility: 10 miles
Few clouds at a height of 7000 ft

METAR: KCEY 171155Z AUTO 00000KT 10SM FEW070 24/24 A2995 RMK A01

Time: 07:18 (12:18 UTC)


TAF: missing

Weather observations and forecasts of more than 4000 airports (METAR and TAF reports).

The available stations are represented by yellow and red dots on the map.

Hover mouse over dot to see the name of the station.

Then click to see weather observations and forecasts.

To change the map : click on the green buttons with a black cross to zoom in, on the green button with a dash to zoom out, or on the green arrows for adjacent maps.


METAR-TAF: